createdAt,value
2022-07-25T00:03:39.276Z,21.50
2022-07-25T00:07:53.889Z,21.50
2022-07-25T00:12:08.112Z,21.50
2022-07-25T00:16:26.384Z,21.40
2022-07-25T00:20:40.156Z,21.40
2022-07-25T00:24:53.928Z,21.40
2022-07-25T00:29:07.948Z,21.40
2022-07-25T00:33:23.182Z,21.30
2022-07-25T00:37:36.958Z,21.30
2022-07-25T00:41:50.795Z,21.30
2022-07-25T00:46:04.625Z,21.30
2022-07-25T00:50:19.995Z,21.30
2022-07-25T00:54:34.226Z,21.30
2022-07-25T00:58:48.166Z,21.30
2022-07-25T01:03:02.049Z,21.30
2022-07-25T01:07:18.451Z,21.30
2022-07-25T01:11:32.360Z,21.30
2022-07-25T01:15:46.332Z,21.20
2022-07-25T01:20:00.238Z,21.10
2022-07-25T01:24:15.387Z,21.10
2022-07-25T01:28:29.661Z,21.00
2022-07-25T01:32:44.005Z,20.90
2022-07-25T01:36:57.872Z,20.90
2022-07-25T01:41:13.049Z,20.90
2022-07-25T01:45:36.874Z,20.90
2022-07-25T01:49:50.881Z,20.80
2022-07-25T01:54:05.745Z,20.80
2022-07-25T01:58:25.713Z,20.80
2022-07-25T02:02:39.650Z,20.80
2022-07-25T02:06:53.384Z,20.70
2022-07-25T02:11:07.400Z,20.70
2022-07-25T02:15:22.492Z,20.70
2022-07-25T02:19:36.718Z,20.70
2022-07-25T02:23:50.808Z,20.70
2022-07-25T02:28:04.817Z,20.60
2022-07-25T02:32:20.116Z,20.60
2022-07-25T02:36:34.149Z,20.70
2022-07-25T02:40:47.942Z,20.60
2022-07-25T02:45:01.698Z,20.60
2022-07-25T02:49:16.852Z,20.60
2022-07-25T02:53:54.799Z,20.50
2022-07-25T02:58:04.543Z,20.60
2022-07-25T03:02:18.353Z,20.50
2022-07-25T03:06:33.457Z,20.60
2022-07-25T03:10:47.464Z,20.50
2022-07-25T03:15:01.806Z,20.50
2022-07-25T03:19:15.508Z,20.40
2022-07-25T03:23:31.114Z,20.40
2022-07-25T03:27:44.861Z,20.40
2022-07-25T03:31:59.389Z,20.40
2022-07-25T03:36:13.195Z,20.30
2022-07-25T03:40:28.326Z,20.20
2022-07-25T03:44:42.216Z,20.20
2022-07-25T03:48:56.499Z,20.20
2022-07-25T03:53:10.227Z,20.20
2022-07-25T03:57:25.500Z,20.40
2022-07-25T04:01:39.447Z,20.70
2022-07-25T04:05:53.194Z,21.00
2022-07-25T04:10:08.153Z,21.50
2022-07-25T04:14:23.443Z,22.20
2022-07-25T04:18:37.413Z,22.70
2022-07-25T04:22:51.810Z,22.80
2022-07-25T04:27:05.785Z,23.00
2022-07-25T04:31:21.062Z,23.30
2022-07-25T04:35:34.818Z,23.60
2022-07-25T04:39:48.531Z,23.70
2022-07-25T04:44:02.334Z,24.00
2022-07-25T04:48:17.596Z,24.50
2022-07-25T04:52:31.353Z,25.30
2022-07-25T04:56:45.076Z,26.10
2022-07-25T05:00:58.825Z,27.00
2022-07-25T05:05:21.173Z,27.70
2022-07-25T05:09:35.557Z,28.30
2022-07-25T05:13:49.327Z,28.70
2022-07-25T05:18:03.568Z,29.00
2022-07-25T05:22:18.756Z,29.10
2022-07-25T05:26:32.559Z,29.50
2022-07-25T05:30:46.345Z,29.80
2022-07-25T05:35:00.216Z,30.20
2022-07-25T05:39:15.392Z,30.60
2022-07-25T05:43:29.271Z,31.20
2022-07-25T05:47:42.996Z,31.40
2022-07-25T05:51:56.682Z,31.50
2022-07-25T05:56:12.094Z,31.70
2022-07-25T06:00:26.272Z,31.90
2022-07-25T06:04:40.040Z,32.10
2022-07-25T06:08:54.236Z,32.20
2022-07-25T06:13:10.136Z,32.60
2022-07-25T06:17:26.960Z,32.90
2022-07-25T06:21:44.385Z,33.50
2022-07-25T06:25:58.255Z,34.10
2022-07-25T06:30:19.780Z,34.70
2022-07-25T06:34:34.272Z,35.10
2022-07-25T06:38:47.992Z,35.20
2022-07-25T06:43:02.444Z,35.30
2022-07-25T06:47:17.551Z,35.20
2022-07-25T06:51:31.523Z,35.10
2022-07-25T06:55:45.528Z,35.70
2022-07-25T06:59:59.934Z,36.40
2022-07-25T07:04:15.064Z,36.80
2022-07-25T07:08:28.829Z,36.50
2022-07-25T07:12:42.736Z,36.50
2022-07-25T07:16:56.549Z,36.80
2022-07-25T07:21:11.761Z,37.30
2022-07-25T07:25:35.838Z,37.90
2022-07-25T07:29:49.700Z,39.00
2022-07-25T07:34:03.576Z,40.00
2022-07-25T07:38:19.016Z,40.50
2022-07-25T07:42:39.142Z,40.70
2022-07-25T07:46:53.050Z,40.70
2022-07-25T07:51:07.701Z,41.00
2022-07-25T07:55:41.201Z,41.60
2022-07-25T07:59:54.928Z,42.30
2022-07-25T08:04:10.219Z,43.20
2022-07-25T08:08:27.853Z,43.40
2022-07-25T08:12:46.027Z,43.70
2022-07-25T08:16:59.820Z,44.00
2022-07-25T08:21:13.741Z,44.00
2022-07-25T08:25:27.650Z,44.00
2022-07-25T08:29:43.660Z,44.20
2022-07-25T08:33:57.568Z,43.90
2022-07-25T08:38:12.127Z,43.30
2022-07-25T08:42:25.895Z,43.10
2022-07-25T08:46:42.635Z,43.30
2022-07-25T08:50:58.172Z,42.80
2022-07-25T08:55:14.729Z,42.40
2022-07-25T08:59:31.767Z,42.00
2022-07-25T09:03:47.205Z,41.90
2022-07-25T09:08:08.711Z,42.30
2022-07-25T09:12:27.176Z,43.10
2022-07-25T09:16:44.619Z,44.00
2022-07-25T09:21:01.530Z,44.40
2022-07-25T09:25:27.339Z,44.90
2022-07-25T09:29:42.742Z,45.00
2022-07-25T09:33:59.318Z,44.70
2022-07-25T09:38:15.992Z,43.40
2022-07-25T09:42:33.373Z,42.50
2022-07-25T09:46:47.532Z,42.30
2022-07-25T09:51:02.745Z,42.50
2022-07-25T09:55:17.893Z,43.00
2022-07-25T09:59:32.341Z,42.60
2022-07-25T10:03:53.048Z,42.20
2022-07-25T10:08:08.663Z,42.50
2022-07-25T10:12:25.129Z,43.00
2022-07-25T10:16:47.166Z,42.50
2022-07-25T10:21:28.701Z,41.60
2022-07-25T10:25:48.705Z,41.20
2022-07-25T10:30:04.649Z,40.50
2022-07-25T10:34:28.785Z,40.00
2022-07-25T10:38:47.332Z,40.20
2022-07-25T10:43:19.648Z,40.90
2022-07-25T10:47:38.244Z,41.40
2022-07-25T10:51:57.580Z,42.20
2022-07-25T10:56:14.909Z,42.90
2022-07-25T11:00:29.185Z,42.20
2022-07-25T11:04:45.003Z,42.40
2022-07-25T11:09:01.260Z,42.00
2022-07-25T11:13:16.731Z,41.80
2022-07-25T11:17:30.768Z,42.40
2022-07-25T11:21:47.789Z,42.90
2022-07-25T11:26:12.258Z,43.10
2022-07-25T11:30:27.702Z,42.30
2022-07-25T11:34:44.280Z,41.80
2022-07-25T11:38:59.528Z,41.70
2022-07-25T11:43:21.286Z,41.80
2022-07-25T11:47:35.286Z,42.00
2022-07-25T11:51:49.079Z,41.80
2022-07-25T11:56:40.806Z,41.50
2022-07-25T12:00:51.148Z,40.70
2022-07-25T12:05:06.761Z,39.70
2022-07-25T12:09:23.244Z,38.50
2022-07-25T12:13:38.439Z,37.70
2022-07-25T12:17:53.251Z,37.10
2022-07-25T12:22:07.200Z,36.30
2022-07-25T12:26:21.278Z,35.70
2022-07-25T12:30:37.701Z,35.40
2022-07-25T12:34:51.851Z,35.20
2022-07-25T12:39:05.918Z,35.20
2022-07-25T12:43:20.071Z,35.30
2022-07-25T12:47:35.402Z,35.30
2022-07-25T12:51:50.791Z,35.30
2022-07-25T12:56:06.751Z,35.30
2022-07-25T13:00:23.123Z,35.30
2022-07-25T13:04:38.466Z,35.20
2022-07-25T13:08:52.328Z,35.10
2022-07-25T13:13:06.270Z,34.90
2022-07-25T13:17:24.948Z,34.90
2022-07-25T13:21:42.739Z,34.90
2022-07-25T13:25:56.815Z,35.00
2022-07-25T13:30:11.700Z,35.10
2022-07-25T13:34:25.532Z,35.20
2022-07-25T13:38:41.529Z,35.40
2022-07-25T13:42:55.430Z,35.50
2022-07-25T13:47:09.310Z,35.50
2022-07-25T13:51:23.354Z,35.60
2022-07-25T13:55:39.094Z,35.70
2022-07-25T13:59:52.848Z,35.70
2022-07-25T14:04:06.933Z,35.80
2022-07-25T14:08:20.740Z,35.90
2022-07-25T14:12:36.193Z,36.10
2022-07-25T14:16:50.523Z,36.30
2022-07-25T14:21:04.615Z,36.30
2022-07-25T14:25:19.708Z,36.30
2022-07-25T14:29:38.244Z,36.30
2022-07-25T14:33:52.242Z,36.30
2022-07-25T14:38:06.807Z,36.40
2022-07-25T14:42:20.884Z,36.40
2022-07-25T14:46:36.330Z,36.40
2022-07-25T14:50:50.468Z,36.40
2022-07-25T14:55:04.695Z,36.20
2022-07-25T14:59:20.301Z,36.10
2022-07-25T15:03:35.496Z,36.00
2022-07-25T15:07:49.369Z,36.00
2022-07-25T15:12:03.193Z,36.00
2022-07-25T15:16:18.020Z,36.10
2022-07-25T15:20:33.544Z,36.10
2022-07-25T15:25:17.919Z,36.20
2022-07-25T15:29:21.601Z,36.20
2022-07-25T15:33:35.683Z,36.20
2022-07-25T15:37:50.866Z,36.10
2022-07-25T15:42:04.686Z,36.10
2022-07-25T15:46:18.541Z,36.00
2022-07-25T15:50:34.548Z,36.10
2022-07-25T15:54:49.687Z,36.20
2022-07-25T15:59:03.731Z,36.20
2022-07-25T16:03:17.532Z,36.40
2022-07-25T16:07:31.379Z,36.50
2022-07-25T16:11:47.344Z,36.50
2022-07-25T16:16:01.214Z,36.40
2022-07-25T16:20:15.093Z,36.20
2022-07-25T16:24:28.970Z,36.00
2022-07-25T16:28:44.300Z,35.70
2022-07-25T16:32:58.144Z,35.50
2022-07-25T16:37:12.734Z,35.20
2022-07-25T16:41:26.705Z,34.50
2022-07-25T16:45:43.109Z,33.30
2022-07-25T16:49:56.864Z,31.90
2022-07-25T16:54:10.715Z,30.60
2022-07-25T16:58:25.132Z,29.40
2022-07-25T17:02:40.390Z,28.60
2022-07-25T17:06:55.315Z,28.00
2022-07-25T17:11:09.130Z,27.60
2022-07-25T17:15:23.025Z,27.30
2022-07-25T17:19:39.889Z,27.10
2022-07-25T17:23:54.706Z,26.90
2022-07-25T17:28:09.249Z,26.60
2022-07-25T17:32:26.439Z,26.40
2022-07-25T17:36:45.014Z,26.20
2022-07-25T17:40:58.740Z,25.90
2022-07-25T17:45:31.312Z,25.80
2022-07-25T17:49:45.070Z,25.80
2022-07-25T17:54:00.355Z,25.80
2022-07-25T17:58:14.182Z,25.90
2022-07-25T18:02:28.029Z,26.00
2022-07-25T18:06:42.012Z,26.30
2022-07-25T18:10:57.205Z,26.50
2022-07-25T18:15:14.365Z,26.70
2022-07-25T18:19:28.133Z,26.80
2022-07-25T18:23:41.882Z,26.80
2022-07-25T18:27:57.158Z,26.80
2022-07-25T18:32:10.892Z,26.70
2022-07-25T18:36:24.746Z,26.60
2022-07-25T18:40:38.673Z,26.50
2022-07-25T18:44:53.906Z,26.30
2022-07-25T18:49:07.747Z,26.20
2022-07-25T18:53:21.622Z,26.10
2022-07-25T18:57:35.646Z,26.10
2022-07-25T19:01:51.206Z,26.00
2022-07-25T19:06:05.815Z,25.90
2022-07-25T19:10:20.021Z,25.90
2022-07-25T19:14:33.814Z,25.80
2022-07-25T19:18:49.013Z,25.80
2022-07-25T19:23:02.864Z,25.80
2022-07-25T19:27:19.906Z,25.80
2022-07-25T19:31:34.288Z,25.80
2022-07-25T19:35:49.543Z,25.70
2022-07-25T19:40:04.185Z,25.70
2022-07-25T19:44:18.248Z,25.60
2022-07-25T19:48:32.233Z,25.60
2022-07-25T19:52:47.684Z,25.50
2022-07-25T19:57:01.580Z,25.50
2022-07-25T20:01:15.440Z,25.40
2022-07-25T20:05:29.306Z,25.40
2022-07-25T20:09:44.442Z,25.30
2022-07-25T20:13:58.686Z,25.30
2022-07-25T20:18:17.387Z,25.30
2022-07-25T20:22:37.388Z,25.30
2022-07-25T20:26:52.485Z,25.20
2022-07-25T20:31:06.588Z,25.20
2022-07-25T20:35:20.432Z,25.20
2022-07-25T20:39:35.108Z,25.20
2022-07-25T20:43:50.244Z,25.10
2022-07-25T20:48:04.243Z,25.10
2022-07-25T20:52:18.254Z,25.10
2022-07-25T20:56:32.069Z,25.10
2022-07-25T21:00:47.391Z,25.10
2022-07-25T21:05:02.384Z,25.10
2022-07-25T21:09:16.499Z,25.10
2022-07-25T21:13:32.538Z,25.00
2022-07-25T21:17:48.408Z,25.00
2022-07-25T21:22:04.005Z,24.90
2022-07-25T21:26:17.827Z,24.80
2022-07-25T21:30:31.628Z,24.70
2022-07-25T21:34:47.345Z,24.70
2022-07-25T21:39:01.057Z,24.60
2022-07-25T21:43:14.802Z,24.50
2022-07-25T21:47:28.524Z,24.40
2022-07-25T21:51:43.611Z,24.30
2022-07-25T21:55:57.819Z,24.10
2022-07-25T22:00:13.784Z,24.10
2022-07-25T22:04:27.728Z,24.00
2022-07-25T22:08:42.934Z,23.90
2022-07-25T22:12:56.805Z,23.90
2022-07-25T22:17:10.534Z,23.90
2022-07-25T22:21:24.390Z,23.90
2022-07-25T22:25:39.588Z,23.90
2022-07-25T22:29:53.340Z,23.90
2022-07-25T22:34:07.154Z,23.90
2022-07-25T22:38:21.002Z,23.90
2022-07-25T22:42:36.526Z,23.90
2022-07-25T22:46:50.380Z,23.90
2022-07-25T22:51:04.103Z,23.80
2022-07-25T22:55:17.949Z,23.70
2022-07-25T22:59:33.530Z,23.70
2022-07-25T23:03:47.622Z,23.70
2022-07-25T23:08:01.471Z,23.60
2022-07-25T23:12:15.366Z,23.60
2022-07-25T23:16:30.584Z,23.60
2022-07-25T23:20:44.453Z,23.50
2022-07-25T23:24:58.676Z,23.50
2022-07-25T23:29:12.639Z,23.40
2022-07-25T23:33:27.808Z,23.30
2022-07-25T23:37:43.261Z,23.20
2022-07-25T23:41:57.040Z,23.10
2022-07-25T23:46:10.822Z,23.10
2022-07-25T23:50:27.415Z,23.10
2022-07-25T23:54:41.145Z,23.00
2022-07-25T23:58:54.933Z,23.00
